EGGW/LTN METAR and TAF weather

Enter ICAO airport designator
Station Type Date Time Source
EGGW METAR 2022/08/13 12:20 UTC NOAA

EGGW 131220Z AUTO 10008KT 080V140 9999 NCD 32/04 Q1014


Station Type Date Time Source
EGGW Decoded METAR 2022/08/13 12:20 UTC NOAA

Luton Airport , United Kingdom (EGGW) 51-52N 000-22W
Aug 13, 2022 - 08:20 AM EDT / 2022.08.13 1220 UTC
Wind: from the E (100 degrees) at 9 MPH (8 KT) (direction variable):0
Visibility: greater than 7 mile(s):0
Temperature: 89 F (32 C)
Dew Point: 39 F (4 C)
Relative Humidity: 17%
Pressure (altimeter): 29.94 in. Hg (1014 hPa)
ob: EGGW 131220Z AUTO 10008KT 080V140 9999 NCD 32/04 Q1014
cycle: 12

Station Type Date Time Source
EGGW TAF 2022/08/13 12:09 UTC NOAA

TAF EGGW 131100Z 1312/1412 05008KT CAVOK
BECMG 1312/1314 14012KT
BECMG 1403/1406 03005KT

Example: see airport list